createdAt,value
2019-03-27T00:01:29.629Z,15.63
2019-03-27T00:04:16.949Z,13.70
2019-03-27T00:07:04.683Z,12.40
2019-03-27T00:09:52.514Z,15.43
2019-03-27T00:12:40.351Z,15.43
2019-03-27T00:15:27.574Z,14.53
2019-03-27T00:18:15.095Z,13.63
2019-03-27T00:21:02.725Z,14.60
2019-03-27T00:23:50.253Z,16.10
2019-03-27T00:26:37.881Z,15.53
2019-03-27T00:29:25.847Z,14.90
2019-03-27T00:32:13.351Z,12.00
2019-03-27T00:35:01.076Z,15.70
2019-03-27T00:37:48.396Z,8.97
2019-03-27T00:40:35.615Z,12.33
2019-03-27T00:43:22.937Z,13.13
2019-03-27T00:46:10.359Z,10.53
2019-03-27T00:48:57.897Z,13.10
2019-03-27T00:51:45.514Z,15.43
2019-03-27T00:54:32.636Z,17.63
2019-03-27T00:57:20.260Z,13.50
2019-03-27T01:00:17.106Z,12.63
2019-03-27T01:03:04.529Z,11.07
2019-03-27T01:05:51.851Z,13.47
2019-03-27T01:08:39.281Z,12.97
2019-03-27T01:11:27.007Z,11.63
2019-03-27T01:14:15.864Z,11.30
2019-03-27T01:17:03.875Z,11.87
2019-03-27T01:19:56.548Z,9.40
2019-03-27T01:22:44.232Z,11.70
2019-03-27T01:25:32.477Z,12.63
2019-03-27T01:28:20.057Z,13.27
2019-03-27T01:31:07.370Z,13.80
2019-03-27T01:33:55.309Z,13.20
2019-03-27T01:36:42.835Z,14.97
2019-03-27T01:39:30.261Z,12.83
2019-03-27T01:42:17.887Z,12.17
2019-03-27T01:45:07.673Z,11.13
2019-03-27T01:47:54.989Z,11.17
2019-03-27T01:50:42.421Z,13.27
2019-03-27T01:53:29.634Z,12.30
2019-03-27T01:56:17.332Z,12.90
2019-03-27T01:59:04.992Z,11.50
2019-03-27T02:01:52.203Z,11.60
2019-03-27T02:04:39.945Z,13.50
2019-03-27T02:07:27.474Z,10.23
2019-03-27T02:10:15.075Z,9.90
2019-03-27T02:13:02.424Z,12.03
2019-03-27T02:15:50.357Z,11.50
2019-03-27T02:18:37.678Z,12.17
2019-03-27T02:21:25.205Z,9.80
2019-03-27T02:24:12.835Z,10.83
2019-03-27T02:27:00.564Z,11.07
2019-03-27T02:29:48.400Z,9.93
2019-03-27T02:32:35.618Z,10.73
2019-03-27T02:35:23.160Z,13.60
2019-03-27T02:38:10.876Z,10.57
2019-03-27T02:40:58.200Z,12.33
2019-03-27T02:43:46.109Z,10.70
2019-03-27T02:46:33.766Z,10.80
2019-03-27T02:49:21.086Z,9.93
2019-03-27T02:52:08.612Z,10.53
2019-03-27T02:54:55.636Z,13.50
2019-03-27T02:57:43.151Z,9.83
2019-03-27T03:00:31.090Z,10.23
2019-03-27T03:03:18.211Z,12.33
2019-03-27T03:06:06.041Z,14.93
2019-03-27T03:08:52.952Z,9.73
2019-03-27T03:11:40.685Z,11.53
2019-03-27T03:14:28.208Z,11.73
2019-03-27T03:17:16.146Z,11.60
2019-03-27T03:20:04.018Z,6.47
2019-03-27T03:22:51.811Z,8.47
2019-03-27T03:25:39.143Z,11.00
2019-03-27T03:28:26.875Z,10.43
2019-03-27T03:31:14.396Z,8.33
2019-03-27T03:34:01.611Z,6.97
2019-03-27T03:36:49.955Z,10.00
2019-03-27T03:39:37.283Z,14.10
2019-03-27T03:42:24.703Z,7.90
2019-03-27T03:45:12.900Z,12.17
2019-03-27T03:48:00.302Z,12.63
2019-03-27T03:50:47.998Z,14.63
2019-03-27T03:53:36.366Z,13.70
2019-03-27T03:56:25.009Z,13.80
2019-03-27T03:59:13.439Z,12.40
2019-03-27T04:02:03.539Z,15.27
2019-03-27T04:04:51.572Z,15.60
2019-03-27T04:07:38.689Z,14.10
2019-03-27T04:10:26.115Z,11.73
2019-03-27T04:13:13.642Z,12.47
2019-03-27T04:16:01.186Z,14.53
2019-03-27T04:18:48.594Z,10.33
2019-03-27T04:21:36.528Z,12.70
2019-03-27T04:24:23.952Z,11.47
2019-03-27T04:27:11.392Z,11.07
2019-03-27T04:29:58.999Z,9.73
2019-03-27T04:32:46.836Z,11.67
2019-03-27T04:35:34.467Z,14.63
2019-03-27T04:38:22.095Z,12.53
2019-03-27T04:41:09.724Z,12.33
2019-03-27T04:43:56.842Z,12.83
2019-03-27T04:46:44.577Z,12.63
2019-03-27T04:49:31.998Z,14.83
2019-03-27T04:52:19.931Z,16.60
2019-03-27T04:55:07.976Z,21.03
2019-03-27T04:57:55.294Z,17.17
2019-03-27T05:00:42.616Z,15.10
2019-03-27T05:03:30.262Z,14.57
2019-03-27T05:06:31.620Z,11.23
2019-03-27T05:12:44.942Z,14.40
2019-03-27T05:15:32.686Z,11.30
2019-03-27T05:18:20.301Z,10.13
2019-03-27T05:21:08.032Z,15.67
2019-03-27T05:23:55.663Z,15.03
2019-03-27T05:26:43.293Z,12.30
2019-03-27T05:29:30.919Z,12.60
2019-03-27T05:32:18.142Z,16.73
2019-03-27T05:35:06.915Z,19.30
2019-03-27T05:37:54.730Z,15.97
2019-03-27T05:40:41.948Z,18.80
2019-03-27T05:43:29.374Z,12.00
2019-03-27T05:46:16.799Z,12.50
2019-03-27T05:49:03.917Z,15.33
2019-03-27T05:51:51.450Z,13.97
2019-03-27T05:54:39.785Z,12.43
2019-03-27T05:57:27.516Z,14.80
2019-03-27T06:00:16.894Z,14.03
2019-03-27T06:03:04.982Z,14.90
2019-03-27T06:05:52.455Z,19.40
2019-03-27T06:08:39.984Z,24.70
2019-03-27T06:11:27.404Z,23.13
2019-03-27T06:14:14.829Z,21.30
2019-03-27T06:17:02.154Z,21.70
2019-03-27T06:19:49.369Z,20.23
2019-03-27T06:22:37.100Z,20.67
2019-03-27T06:25:24.230Z,20.03
2019-03-27T06:28:11.434Z,19.13
2019-03-27T06:30:59.168Z,20.27
2019-03-27T06:33:47.822Z,23.13
2019-03-27T06:36:35.347Z,19.33
2019-03-27T06:39:22.875Z,16.27
2019-03-27T06:42:09.993Z,18.43
2019-03-27T06:44:57.720Z,15.33
2019-03-27T06:47:45.149Z,22.03
2019-03-27T06:50:32.588Z,14.87
2019-03-27T06:53:20.302Z,19.73
2019-03-27T06:56:07.832Z,20.20
2019-03-27T06:58:55.221Z,19.73
2019-03-27T07:01:42.602Z,20.53
2019-03-27T07:04:29.995Z,15.37
2019-03-27T07:07:17.429Z,18.57
2019-03-27T07:10:08.122Z,18.57
2019-03-27T07:12:55.654Z,16.70
2019-03-27T07:15:43.290Z,17.27
2019-03-27T07:18:40.086Z,22.17
2019-03-27T07:21:19.975Z,21.43
2019-03-27T07:24:07.597Z,16.67
2019-03-27T07:26:55.127Z,18.43
2019-03-27T07:29:42.550Z,16.07
2019-03-27T07:32:30.278Z,17.43
2019-03-27T07:35:18.481Z,20.97
2019-03-27T07:38:06.382Z,20.30
2019-03-27T07:40:53.882Z,19.23
2019-03-27T07:43:42.062Z,17.57
2019-03-27T07:46:29.842Z,20.60
2019-03-27T07:49:17.508Z,19.00
2019-03-27T07:52:04.942Z,22.33
2019-03-27T07:54:53.583Z,20.50
2019-03-27T07:57:41.489Z,21.00
2019-03-27T08:00:32.378Z,20.60
2019-03-27T08:03:19.931Z,21.53
2019-03-27T08:06:07.460Z,19.17
2019-03-27T08:08:57.711Z,17.43
2019-03-27T08:11:45.210Z,18.07
2019-03-27T08:14:32.886Z,17.43
2019-03-27T08:17:20.432Z,18.03
2019-03-27T08:20:08.472Z,17.90
2019-03-27T08:22:57.617Z,19.97
2019-03-27T08:25:45.503Z,18.93
2019-03-27T08:28:33.300Z,20.93
2019-03-27T08:31:21.505Z,18.43
2019-03-27T08:34:08.661Z,19.53
2019-03-27T08:36:56.206Z,20.57
2019-03-27T08:39:43.612Z,15.90
2019-03-27T08:42:31.143Z,19.10
2019-03-27T08:45:19.790Z,19.90
2019-03-27T08:48:08.350Z,18.27
2019-03-27T08:50:55.770Z,21.13
2019-03-27T08:53:43.605Z,19.10
2019-03-27T08:56:31.231Z,16.43
2019-03-27T08:59:19.265Z,15.97
2019-03-27T09:02:06.894Z,16.90
2019-03-27T09:04:54.729Z,16.83
2019-03-27T09:07:42.463Z,16.80
2019-03-27T09:10:29.851Z,15.00
2019-03-27T09:13:18.136Z,15.40
2019-03-27T09:16:05.766Z,17.93
2019-03-27T09:18:56.532Z,17.10
2019-03-27T09:21:46.286Z,16.00
2019-03-27T09:24:35.532Z,16.87
2019-03-27T09:27:25.484Z,19.13
2019-03-27T09:30:14.549Z,15.97
2019-03-27T09:33:02.018Z,15.47
2019-03-27T09:35:53.420Z,14.77
2019-03-27T09:38:43.127Z,13.30
2019-03-27T09:41:31.213Z,20.23
2019-03-27T09:44:21.426Z,15.37
2019-03-27T09:47:10.157Z,19.50
2019-03-27T09:50:04.421Z,14.63
2019-03-27T09:52:52.415Z,14.73
2019-03-27T09:55:40.940Z,15.73
2019-03-27T09:58:29.995Z,14.37
2019-03-27T10:01:17.927Z,15.27
2019-03-27T10:04:05.776Z,14.47
2019-03-27T10:06:53.672Z,17.33
2019-03-27T10:09:42.322Z,15.07
2019-03-27T10:12:30.390Z,17.37
2019-03-27T10:15:17.921Z,20.37
2019-03-27T10:18:06.529Z,16.17
2019-03-27T10:20:53.891Z,16.17
2019-03-27T10:23:41.877Z,15.80
2019-03-27T10:26:29.352Z,16.47
2019-03-27T10:29:17.082Z,13.47
2019-03-27T10:32:04.814Z,15.67
2019-03-27T10:34:52.342Z,14.90
2019-03-27T10:37:40.071Z,14.27
2019-03-27T10:40:28.008Z,13.03
2019-03-27T10:43:15.943Z,12.10
2019-03-27T10:46:03.675Z,12.20
2019-03-27T10:48:52.821Z,11.73
2019-03-27T10:51:39.856Z,11.60
2019-03-27T10:54:27.180Z,17.97
2019-03-27T10:57:14.501Z,11.43
2019-03-27T11:00:02.025Z,12.77
2019-03-27T11:02:49.655Z,12.43
2019-03-27T11:05:37.489Z,10.97
2019-03-27T11:08:24.789Z,15.27
2019-03-27T11:11:12.136Z,10.30
2019-03-27T11:13:59.558Z,9.70
2019-03-27T11:16:47.084Z,14.03
2019-03-27T11:19:34.606Z,9.50
2019-03-27T11:22:22.340Z,9.90
2019-03-27T11:25:11.095Z,9.20
2019-03-27T11:27:58.110Z,6.03
2019-03-27T11:30:48.400Z,7.17
2019-03-27T11:33:36.131Z,7.83
2019-03-27T11:36:23.758Z,5.77
2019-03-27T11:39:11.290Z,8.73
2019-03-27T11:42:00.818Z,5.20
2019-03-27T11:44:48.287Z,7.03
2019-03-27T11:47:35.709Z,7.67
2019-03-27T11:50:23.236Z,8.27
2019-03-27T11:53:10.766Z,8.60
2019-03-27T11:55:58.187Z,7.63
2019-03-27T11:58:45.920Z,7.40
2019-03-27T12:01:39.586Z,6.90
2019-03-27T12:04:22.405Z,6.17
2019-03-27T12:07:09.930Z,6.20
2019-03-27T12:09:57.357Z,6.97
2019-03-27T12:12:48.076Z,6.37
2019-03-27T12:15:39.871Z,7.63
2019-03-27T12:18:27.410Z,6.30
2019-03-27T12:21:15.142Z,7.00
2019-03-27T12:24:02.570Z,7.20
2019-03-27T12:26:50.100Z,6.80
2019-03-27T12:29:37.413Z,6.77
2019-03-27T12:32:25.242Z,7.90
2019-03-27T12:35:12.469Z,6.73
2019-03-27T12:38:00.300Z,8.80
2019-03-27T12:40:48.134Z,7.47
2019-03-27T12:43:35.661Z,6.37
2019-03-27T12:46:23.086Z,6.73
2019-03-27T12:49:10.920Z,7.33
2019-03-27T12:51:58.549Z,11.73
2019-03-27T12:54:46.074Z,7.27
2019-03-27T12:57:33.601Z,6.80
2019-03-27T13:00:22.115Z,5.30
2019-03-27T13:03:09.784Z,5.10
2019-03-27T13:05:56.803Z,6.00
2019-03-27T13:08:44.124Z,5.80
2019-03-27T13:11:31.549Z,4.70
2019-03-27T13:14:19.273Z,6.93
2019-03-27T13:17:06.905Z,6.10
2019-03-27T13:19:54.430Z,7.00
2019-03-27T13:22:42.067Z,6.30
2019-03-27T13:25:29.695Z,4.93
2019-03-27T13:28:17.241Z,3.93
2019-03-27T13:31:04.753Z,3.37
2019-03-27T13:33:51.969Z,4.40
2019-03-27T13:36:41.235Z,4.07
2019-03-27T13:39:28.874Z,6.17
2019-03-27T13:42:16.087Z,6.00
2019-03-27T13:45:05.567Z,7.80
2019-03-27T13:47:53.382Z,5.93
2019-03-27T13:50:41.317Z,4.80
2019-03-27T13:53:28.741Z,4.83
2019-03-27T13:56:15.756Z,7.40
2019-03-27T13:59:03.285Z,6.07
2019-03-27T14:01:50.400Z,8.13
2019-03-27T14:04:37.927Z,5.63
2019-03-27T14:07:25.455Z,4.13
2019-03-27T14:10:13.391Z,5.37
2019-03-27T14:13:00.514Z,7.13
2019-03-27T14:15:48.031Z,4.17
2019-03-27T14:18:35.867Z,5.27
2019-03-27T14:21:23.578Z,5.87
2019-03-27T14:24:11.122Z,4.60
2019-03-27T14:26:58.550Z,5.07
2019-03-27T14:29:46.074Z,4.03
2019-03-27T14:32:33.504Z,5.60
2019-03-27T14:35:21.347Z,6.77
2019-03-27T14:38:10.193Z,4.27
2019-03-27T14:40:57.822Z,4.20
2019-03-27T14:43:45.040Z,5.23
2019-03-27T14:46:33.476Z,5.83
2019-03-27T14:49:21.014Z,6.63
2019-03-27T14:52:08.784Z,7.30
2019-03-27T14:54:56.273Z,6.40
2019-03-27T14:57:44.310Z,7.10
2019-03-27T15:00:32.146Z,5.03
2019-03-27T15:03:19.690Z,6.03
2019-03-27T15:06:06.997Z,4.80
2019-03-27T15:08:54.724Z,4.53
2019-03-27T15:11:42.869Z,6.23
2019-03-27T15:14:30.292Z,8.33
2019-03-27T15:17:17.920Z,6.30
2019-03-27T15:20:09.952Z,5.17
2019-03-27T15:22:57.067Z,6.60
2019-03-27T15:25:45.106Z,5.80
2019-03-27T15:28:32.838Z,4.50
2019-03-27T15:31:21.050Z,6.83
2019-03-27T15:34:08.822Z,5.23
2019-03-27T15:36:56.647Z,7.40
2019-03-27T15:39:44.381Z,7.23
2019-03-27T15:42:31.935Z,7.37
2019-03-27T15:45:19.737Z,9.87
2019-03-27T15:48:07.066Z,7.87
2019-03-27T15:50:58.737Z,6.17
2019-03-27T15:53:43.550Z,5.60
2019-03-27T15:56:31.176Z,6.17
2019-03-27T15:59:18.700Z,6.13
2019-03-27T16:02:07.380Z,5.00
2019-03-27T16:04:54.678Z,5.70
2019-03-27T16:07:42.204Z,6.63
2019-03-27T16:10:29.732Z,4.33
2019-03-27T16:13:17.877Z,4.40
2019-03-27T16:16:05.194Z,7.60
2019-03-27T16:18:53.176Z,6.40
2019-03-27T16:21:40.763Z,6.63
2019-03-27T16:24:28.495Z,6.43
2019-03-27T16:27:15.915Z,4.83
2019-03-27T16:30:03.772Z,4.97
2019-03-27T16:32:51.504Z,6.27
2019-03-27T16:35:39.312Z,6.43
2019-03-27T16:38:26.839Z,5.83
2019-03-27T16:41:13.957Z,6.43
2019-03-27T16:44:01.689Z,6.70
2019-03-27T16:46:49.012Z,8.03
2019-03-27T16:49:36.540Z,58.67
2019-03-27T16:52:23.962Z,10.13
2019-03-27T16:55:11.886Z,9.70
2019-03-27T16:57:59.632Z,7.13
2019-03-27T17:00:47.129Z,7.03
2019-03-27T17:03:34.476Z,6.47
2019-03-27T17:06:22.626Z,8.27
2019-03-27T17:09:09.871Z,8.80
2019-03-27T17:11:57.261Z,7.03
2019-03-27T17:14:44.791Z,8.10
2019-03-27T17:17:32.218Z,8.43
2019-03-27T17:20:19.944Z,9.37
2019-03-27T17:23:17.954Z,7.93
2019-03-27T17:25:56.906Z,5.20
2019-03-27T17:28:44.471Z,6.70
2019-03-27T17:31:32.317Z,6.00
2019-03-27T17:34:19.530Z,8.80
2019-03-27T17:37:07.357Z,7.57
2019-03-27T17:39:54.371Z,6.03
2019-03-27T17:42:41.898Z,8.27
2019-03-27T17:45:29.529Z,6.53
2019-03-27T17:48:17.368Z,5.97
2019-03-27T17:51:04.888Z,6.30
2019-03-27T17:53:52.720Z,8.53
2019-03-27T17:56:40.864Z,5.83
2019-03-27T17:59:28.122Z,6.93
2019-03-27T18:02:15.715Z,6.47
2019-03-27T18:05:03.663Z,6.53
2019-03-27T18:07:51.380Z,7.30
2019-03-27T18:10:38.499Z,7.20
2019-03-27T18:13:26.360Z,6.03
2019-03-27T18:16:13.459Z,6.37
2019-03-27T18:19:00.871Z,7.80
2019-03-27T18:21:48.704Z,5.90
2019-03-27T18:24:36.235Z,6.43
2019-03-27T18:27:24.939Z,9.63
2019-03-27T18:30:13.402Z,8.57
2019-03-27T18:33:01.173Z,6.33
2019-03-27T18:35:48.392Z,7.80
2019-03-27T18:38:35.940Z,7.50
2019-03-27T18:41:24.468Z,7.93
2019-03-27T18:44:12.216Z,6.37
2019-03-27T18:46:59.721Z,7.80
2019-03-27T18:49:47.613Z,7.20
2019-03-27T18:52:35.087Z,7.03
2019-03-27T18:55:26.816Z,6.93
2019-03-27T18:58:11.683Z,9.67
2019-03-27T19:00:59.818Z,9.53
2019-03-27T19:03:47.543Z,8.77
2019-03-27T19:06:35.074Z,10.47
2019-03-27T19:09:22.627Z,7.47
2019-03-27T19:12:10.225Z,7.27
2019-03-27T19:14:57.866Z,8.83
2019-03-27T19:17:45.176Z,9.67
2019-03-27T19:20:32.830Z,9.70
2019-03-27T19:23:20.742Z,9.27
2019-03-27T19:26:08.370Z,8.17
2019-03-27T19:28:56.102Z,7.77
2019-03-27T19:31:43.936Z,8.83
2019-03-27T19:34:31.673Z,11.40
2019-03-27T19:37:19.607Z,39.67
2019-03-27T19:40:07.361Z,72.07
2019-03-27T19:42:55.376Z,27.17
2019-03-27T19:45:42.797Z,21.17
2019-03-27T19:48:30.938Z,16.20
2019-03-27T19:51:18.467Z,12.30
2019-03-27T19:54:06.402Z,14.30
2019-03-27T19:56:55.775Z,13.20
2019-03-27T19:59:43.297Z,11.60
2019-03-27T20:02:30.825Z,11.53
2019-03-27T20:05:18.725Z,12.53
2019-03-27T20:08:06.183Z,14.23
2019-03-27T20:10:53.618Z,16.23
2019-03-27T20:13:41.139Z,14.07
2019-03-27T20:16:28.867Z,11.90
2019-03-27T20:19:16.810Z,13.93
2019-03-27T20:22:04.534Z,13.53
2019-03-27T20:24:51.702Z,13.70
2019-03-27T20:27:39.488Z,13.23
2019-03-27T20:30:27.424Z,15.27
2019-03-27T20:33:14.855Z,13.10
2019-03-27T20:36:03.125Z,14.43
2019-03-27T20:38:51.131Z,14.47
2019-03-27T20:41:38.247Z,14.90
2019-03-27T20:44:25.464Z,14.33
2019-03-27T20:47:15.964Z,12.03
2019-03-27T20:50:04.001Z,15.03
2019-03-27T20:52:51.634Z,13.13
2019-03-27T20:55:39.566Z,14.93
2019-03-27T20:58:27.502Z,15.00
2019-03-27T21:01:15.131Z,16.10
2019-03-27T21:04:03.162Z,14.40
2019-03-27T21:06:50.629Z,19.10
2019-03-27T21:09:38.528Z,17.40
2019-03-27T21:12:26.165Z,16.67
2019-03-27T21:15:13.889Z,13.90
2019-03-27T21:18:01.525Z,14.93
2019-03-27T21:20:49.250Z,13.07
2019-03-27T21:23:36.572Z,26.13
2019-03-27T21:26:23.693Z,17.10
2019-03-27T21:29:11.114Z,16.97
2019-03-27T21:31:58.342Z,17.83
2019-03-27T21:34:46.065Z,14.87
2019-03-27T21:37:33.593Z,14.90
2019-03-27T21:40:21.441Z,16.17
2019-03-27T21:43:09.263Z,17.00
2019-03-27T21:45:56.788Z,18.03
2019-03-27T21:48:44.211Z,20.13
2019-03-27T21:51:32.177Z,15.20
2019-03-27T21:54:19.778Z,18.00
2019-03-27T21:57:07.198Z,17.23
2019-03-27T21:59:54.980Z,13.57
2019-03-27T22:02:42.663Z,15.27
2019-03-27T22:05:29.764Z,19.27
2019-03-27T22:08:17.511Z,13.07
2019-03-27T22:11:04.942Z,17.37
2019-03-27T22:13:52.667Z,16.50
2019-03-27T22:16:40.094Z,15.77
2019-03-27T22:19:27.617Z,17.47
2019-03-27T22:22:15.458Z,16.70
2019-03-27T22:25:03.083Z,15.50
2019-03-27T22:27:50.503Z,15.67
2019-03-27T22:30:38.350Z,16.70
2019-03-27T22:33:26.173Z,16.67
2019-03-27T22:36:14.010Z,15.40
2019-03-27T22:39:01.227Z,16.27
2019-03-27T22:41:49.165Z,13.53
2019-03-27T22:44:36.590Z,13.40
2019-03-27T22:47:24.112Z,15.63
2019-03-27T22:50:11.638Z,13.67
2019-03-27T22:52:59.373Z,13.87
2019-03-27T22:55:50.108Z,13.20
2019-03-27T22:58:35.756Z,11.30
2019-03-27T23:01:22.871Z,12.60
2019-03-27T23:04:11.260Z,12.90
2019-03-27T23:06:58.845Z,13.73
2019-03-27T23:09:46.278Z,11.63
2019-03-27T23:12:33.804Z,13.03
2019-03-27T23:15:21.738Z,12.53
2019-03-27T23:18:08.751Z,14.63
2019-03-27T23:20:56.276Z,13.93
2019-03-27T23:23:44.113Z,12.77
2019-03-27T23:26:31.638Z,12.53
2019-03-27T23:29:18.763Z,13.43
2019-03-27T23:32:06.688Z,15.57
2019-03-27T23:34:54.417Z,15.03
2019-03-27T23:37:46.526Z,15.00
2019-03-27T23:40:38.311Z,13.43
2019-03-27T23:43:25.506Z,12.33
2019-03-27T23:46:13.136Z,13.47
2019-03-27T23:49:00.451Z,12.77
2019-03-27T23:51:48.132Z,14.27
2019-03-27T23:54:35.707Z,14.27
2019-03-27T23:57:23.336Z,13.03
